Date,TemperatureHighF,TemperatureAvgF,TemperatureLowF,DewpointHighF,DewpointAvgF,DewpointLowF,HumidityHigh,HumidityAvg,HumidityLow,PressureMaxIn,PressureMinIn,WindSpeedMaxMPH,WindSpeedAvgMPH,GustSpeedMaxMPH,PrecipitationSumIn
2013-4-1,55.2,47.2,38.1,45.2,36.5,4.4,73,68,19,30.08,29.79,18,6,18,0.00
2013-4-2,56.3,43.9,29.1,38.7,23.5,-7.0,74,47,20,30.20,30.11,14,4,14,0.00
2013-4-3,56.7,46.5,29.7,26.6,19.0,-6.6,39,33,20,30.26,30.14,13,5,13,0.00
2013-4-4,53.2,47.4,37.8,24.8,19.8,1.2,38,33,21,30.08,29.91,8,2,8,0.00
2013-4-5,70.5,56.8,31.6,51.7,39.1,-2.0,71,52,22,30.02,29.91,13,4,13,0.00
2013-4-6,75.6,62.5,42.6,50.2,41.8,4.4,71,48,20,30.05,29.88,16,6,16,0.00
2013-4-7,73.6,65.4,57.4,50.0,41.6,12.9,52,44,17,29.93,29.85,21,9,21,0.00
2013-4-8,74.7,67.0,56.3,50.0,43.7,12.0,52,44,17,29.93,29.85,25,9,25,0.00
2013-4-9,83.3,69.2,58.8,58.8,49.4,27.4,62,50,14,30.05,29.91,26,8,26,0.00
2013-4-10,85.5,74.6,60.4,59.8,49.9,19.1,72,43,15,29.96,29.73,26,9,26,0.00
2013-4-11,70.9,63.1,53.1,64.2,55.2,19.1,100,79,15,29.79,29.52,15,5,15,1.05
2013-4-12,54.9,46.9,36.3,46.6,36.6,29.5,100,69,55,29.91,29.58,23,9,23,0.16
2013-4-13,63.7,51.6,33.1,44.5,35.1,8.6,100,54,32,30.02,29.93,19,6,19,0.00
2013-4-14,77.9,65.4,46.9,55.9,44.9,32.5,57,48,41,29.96,29.76,23,6,23,0.00
2013-4-15,78.3,67.6,55.6,56.4,46.0,15.5,72,47,20,29.96,29.85,13,5,13,0.00
2013-4-16,83.8,73.3,61.7,59.3,53.1,28.8,70,50,24,30.11,29.96,18,7,18,0.00
2013-4-17,89.2,71.4,61.9,67.5,54.0,41.4,97,55,41,30.11,29.93,10,3,10,0.00
2013-4-18,85.1,75.5,62.8,62.5,52.7,34.0,90,46,34,29.91,29.64,28,13,28,0.00
2013-4-19,47.8,42.5,37.6,37.1,28.7,12.5,86,59,31,30.02,29.67,23,10,23,1.17
2013-4-20,60.8,48.4,31.3,48.4,30.3,1.6,100,54,17,30.35,30.05,15,4,15,0.00
2013-4-21,67.5,53.3,36.9,46.4,34.0,1.1,76,49,21,30.38,30.23,9,4,9,0.00
2013-4-22,78.3,64.4,41.0,50.0,36.0,4.0,100,35,19,30.23,30.05,13,4,13,0.00
2013-4-23,72.7,64.0,48.0,55.9,45.8,7.6,65,53,19,30.08,29.88,18,8,18,0.00
2013-4-24,64.8,51.4,36.7,57.6,43.3,30.4,100,75,57,30.20,29.79,18,7,18,0.80
2013-4-25,64.2,51.2,31.1,50.8,37.8,12.7,100,61,44,30.32,30.17,17,5,17,0.00
2013-4-26,67.8,57.0,41.2,45.7,34.3,4.1,100,43,20,30.35,30.23,9,3,9,0.00
2013-4-27,57.9,55.3,50.7,57.2,46.1,9.9,100,76,19,30.20,29.91,13,3,13,0.33
2013-4-28,66.6,59.0,53.8,60.6,53.8,47.8,100,83,66,29.91,29.82,18,6,18,0.34
2013-4-29,72.0,62.1,52.9,58.0,51.4,45.1,100,69,56,29.96,29.88,9,3,9,0.00
2013-4-30,87.1,71.0,49.6,68.3,55.4,29.0,98,58,43,30.02,29.88,10,3,10,0.00